createdAt,value
2022-09-18T00:02:26.206Z,18.78
2022-09-18T00:04:54.431Z,17.75
2022-09-18T00:07:24.231Z,16.78
2022-09-18T00:09:54.659Z,17.48
2022-09-18T00:12:22.035Z,17.72
2022-09-18T00:14:52.091Z,17.75
2022-09-18T00:17:22.440Z,18.13
2022-09-18T00:19:50.456Z,18.42
2022-09-18T00:22:18.576Z,18.60
2022-09-18T00:24:46.064Z,18.54
2022-09-18T00:27:13.906Z,18.23
2022-09-18T00:29:41.260Z,18.17
2022-09-18T00:32:13.569Z,18.19
2022-09-18T00:34:44.143Z,18.17
2022-09-18T00:37:11.712Z,18.41
2022-09-18T00:39:39.257Z,18.62
2022-09-18T00:42:07.743Z,18.60
2022-09-18T00:44:37.704Z,18.48
2022-09-18T00:47:07.792Z,18.54
2022-09-18T00:49:38.871Z,18.71
2022-09-18T00:52:08.926Z,18.82
2022-09-18T00:54:42.209Z,18.73
2022-09-18T00:57:14.402Z,18.37
2022-09-18T00:59:43.247Z,16.87
2022-09-18T01:02:13.616Z,17.43
2022-09-18T01:04:41.203Z,17.87
2022-09-18T01:07:21.841Z,18.06
2022-09-18T01:09:57.217Z,18.01
2022-09-18T01:12:42.915Z,17.76
2022-09-18T01:15:15.830Z,17.03
2022-09-18T01:17:52.194Z,16.78
2022-09-18T01:21:01.590Z,17.27
2022-09-18T01:23:48.608Z,17.63
2022-09-18T01:26:24.549Z,17.96
2022-09-18T01:29:04.902Z,17.29
2022-09-18T01:31:33.715Z,17.57
2022-09-18T01:34:03.545Z,17.14
2022-09-18T01:36:35.297Z,17.62
2022-09-18T01:39:08.979Z,17.22
2022-09-18T01:41:36.674Z,17.58
2022-09-18T01:44:12.253Z,17.87
2022-09-18T01:46:40.186Z,17.99
2022-09-18T01:49:08.735Z,18.19
2022-09-18T01:51:54.955Z,18.36
2022-09-18T01:54:23.892Z,18.29
2022-09-18T01:56:58.345Z,18.20
2022-09-18T01:59:30.997Z,18.07
2022-09-18T02:02:06.596Z,18.09
2022-09-18T02:04:37.292Z,17.85
2022-09-18T02:07:11.864Z,17.83
2022-09-18T02:09:42.442Z,18.12
2022-09-18T02:12:14.515Z,17.97
2022-09-18T02:14:48.282Z,18.05
2022-09-18T02:17:40.561Z,17.87
2022-09-18T02:20:13.892Z,17.53
2022-09-18T02:22:42.768Z,17.79
2022-09-18T02:25:10.754Z,18.02
2022-09-18T02:27:43.884Z,18.16
2022-09-18T02:30:13.759Z,17.87
2022-09-18T02:32:46.902Z,17.87
2022-09-18T02:35:16.922Z,18.00
2022-09-18T02:37:44.434Z,18.19
2022-09-18T02:40:19.970Z,18.18
2022-09-18T02:43:06.213Z,16.76
2022-09-18T02:45:42.393Z,17.02
2022-09-18T02:48:25.072Z,17.58
2022-09-18T02:51:11.379Z,17.42
2022-09-18T02:53:46.370Z,17.44
2022-09-18T02:56:20.794Z,17.77
2022-09-18T02:58:58.657Z,17.70
2022-09-18T03:01:29.962Z,17.84
2022-09-18T03:04:04.659Z,18.04
2022-09-18T03:06:46.146Z,17.47
2022-09-18T03:09:13.755Z,17.54
2022-09-18T03:11:44.471Z,17.70
2022-09-18T03:14:12.210Z,17.84
2022-09-18T03:16:43.240Z,17.76
2022-09-18T03:19:14.853Z,17.55
2022-09-18T03:21:43.838Z,17.48
2022-09-18T03:24:16.041Z,17.55
2022-09-18T03:26:45.826Z,17.13
2022-09-18T03:29:16.970Z,17.36
2022-09-18T03:31:47.120Z,17.10
2022-09-18T03:34:14.726Z,16.71
2022-09-18T03:36:45.854Z,17.06
2022-09-18T03:39:16.497Z,17.31
2022-09-18T03:41:59.747Z,17.46
2022-09-18T03:44:27.604Z,17.45
2022-09-18T03:47:00.050Z,17.55
2022-09-18T03:49:31.283Z,17.63
2022-09-18T03:51:58.801Z,17.42
2022-09-18T03:54:36.324Z,17.52
2022-09-18T03:57:20.811Z,17.69
2022-09-18T04:00:02.482Z,17.17
2022-09-18T04:02:46.831Z,17.26
2022-09-18T04:05:34.702Z,17.33
2022-09-18T04:08:26.108Z,17.61
2022-09-18T04:11:19.524Z,17.29
2022-09-18T04:13:47.069Z,17.54
2022-09-18T04:16:14.808Z,17.58
2022-09-18T04:18:42.474Z,17.41
2022-09-18T04:21:11.303Z,17.31
2022-09-18T04:23:41.221Z,17.48
2022-09-18T04:26:11.192Z,17.31
2022-09-18T04:28:49.130Z,17.47
2022-09-18T04:31:16.870Z,17.29
2022-09-18T04:33:44.594Z,17.47
2022-09-18T04:36:12.261Z,17.50
2022-09-18T04:38:41.102Z,17.45
2022-09-18T04:41:11.029Z,17.28
2022-09-18T04:43:38.649Z,17.24
2022-09-18T04:46:09.795Z,17.42
2022-09-18T04:48:39.754Z,17.21
2022-09-18T04:51:07.428Z,17.34
2022-09-18T04:53:47.131Z,17.36
2022-09-18T04:56:17.320Z,17.42
2022-09-18T04:58:51.240Z,17.28
2022-09-18T05:01:19.452Z,17.21
2022-09-18T05:03:47.257Z,17.06
2022-09-18T05:06:24.585Z,17.26
2022-09-18T05:08:54.742Z,17.11
2022-09-18T05:11:25.262Z,17.20
2022-09-18T05:13:56.982Z,16.78
2022-09-18T05:16:28.022Z,16.52
2022-09-18T05:19:15.820Z,16.97
2022-09-18T05:21:43.471Z,17.02
2022-09-18T05:24:14.112Z,17.12
2022-09-18T05:26:44.934Z,17.18
2022-09-18T05:29:12.507Z,17.27
2022-09-18T05:31:42.031Z,17.23
2022-09-18T05:34:12.786Z,17.39
2022-09-18T05:36:44.277Z,17.25
2022-09-18T05:39:16.779Z,17.27
2022-09-18T05:41:48.369Z,17.28
2022-09-18T05:44:15.928Z,17.40
2022-09-18T05:46:43.582Z,16.81
2022-09-18T05:49:20.938Z,16.55
2022-09-18T05:51:48.505Z,16.52
2022-09-18T05:54:20.445Z,16.51
2022-09-18T05:56:49.981Z,16.76
2022-09-18T05:59:19.826Z,16.84
2022-09-18T06:01:49.098Z,17.04
2022-09-18T06:04:22.519Z,17.02
2022-09-18T06:06:54.881Z,17.11
2022-09-18T06:09:23.267Z,17.14
2022-09-18T06:11:53.047Z,17.11
2022-09-18T06:14:20.570Z,16.99
2022-09-18T06:16:51.126Z,17.08
2022-09-18T06:19:44.462Z,17.24
2022-09-18T06:22:12.148Z,17.11
2022-09-18T06:25:11.830Z,17.26
2022-09-18T06:27:39.208Z,17.21
2022-09-18T06:30:06.726Z,17.15
2022-09-18T06:32:38.192Z,17.25
2022-09-18T06:35:08.634Z,17.31
2022-09-18T06:37:36.670Z,17.37
2022-09-18T06:40:27.006Z,17.42
2022-09-18T06:43:18.538Z,17.51
2022-09-18T06:46:08.966Z,17.43
2022-09-18T06:48:42.689Z,17.41
2022-09-18T06:51:10.195Z,17.37
2022-09-18T06:54:13.480Z,17.07
2022-09-18T06:56:41.865Z,16.88
2022-09-18T06:59:13.214Z,17.10
2022-09-18T07:01:41.416Z,16.79
2022-09-18T07:04:18.461Z,16.79
2022-09-18T07:06:46.482Z,16.52
2022-09-18T07:09:15.097Z,16.13
2022-09-18T07:12:08.488Z,16.16
2022-09-18T07:14:51.767Z,16.07
2022-09-18T07:17:24.322Z,16.12
2022-09-18T07:19:57.659Z,16.43
2022-09-18T07:22:38.252Z,16.65
2022-09-18T07:25:10.513Z,17.10
2022-09-18T07:27:42.290Z,17.28
2022-09-18T07:30:13.398Z,17.41
2022-09-18T07:33:18.423Z,17.13
2022-09-18T07:35:42.511Z,17.34
2022-09-18T07:38:11.300Z,17.18
2022-09-18T07:40:50.789Z,16.76
2022-09-18T07:43:41.929Z,16.79
2022-09-18T07:46:10.940Z,17.14
2022-09-18T07:48:40.204Z,17.05
2022-09-18T07:51:19.422Z,16.77
2022-09-18T07:53:49.851Z,16.74
2022-09-18T07:56:26.384Z,16.98
2022-09-18T07:58:58.020Z,16.88
2022-09-18T08:01:49.327Z,16.98
2022-09-18T08:04:19.834Z,17.30
2022-09-18T08:07:19.034Z,17.09
2022-09-18T08:10:16.304Z,17.65
2022-09-18T08:13:04.525Z,17.36
2022-09-18T08:15:49.741Z,17.70
2022-09-18T08:18:40.386Z,17.56
2022-09-18T08:21:34.753Z,17.35
2022-09-18T08:24:04.426Z,17.20
2022-09-18T08:26:34.935Z,17.28
2022-09-18T08:29:05.308Z,17.77
2022-09-18T08:31:33.569Z,17.43
2022-09-18T08:34:06.816Z,17.37
2022-09-18T08:36:34.421Z,17.44
2022-09-18T08:39:12.513Z,17.63
2022-09-18T08:42:33.887Z,18.07
2022-09-18T08:45:23.014Z,18.31
2022-09-18T08:47:52.489Z,18.12
2022-09-18T08:50:26.231Z,18.38
2022-09-18T08:53:21.985Z,18.30
2022-09-18T08:56:21.757Z,17.87
2022-09-18T08:59:16.307Z,17.58
2022-09-18T09:01:52.859Z,18.10
2022-09-18T09:04:28.785Z,17.54
2022-09-18T09:07:03.823Z,17.82
2022-09-18T09:09:55.287Z,18.16
2022-09-18T09:12:42.692Z,18.39
2022-09-18T09:15:41.839Z,18.81
2022-09-18T09:18:16.272Z,18.32
2022-09-18T09:20:56.021Z,18.60
2022-09-18T09:23:35.349Z,18.20
2022-09-18T09:26:17.626Z,18.21
2022-09-18T09:29:22.684Z,18.40
2022-09-18T09:32:00.821Z,18.24
2022-09-18T09:34:49.592Z,18.63
2022-09-18T09:37:45.889Z,18.85
2022-09-18T09:40:27.877Z,19.01
2022-09-18T09:42:59.522Z,18.66
2022-09-18T09:45:48.819Z,18.84
2022-09-18T09:48:17.279Z,19.58
2022-09-18T09:51:05.548Z,19.35
2022-09-18T09:53:39.062Z,19.09
2022-09-18T09:56:18.182Z,19.34
2022-09-18T09:59:07.620Z,19.01
2022-09-18T10:01:46.963Z,19.18
2022-09-18T10:04:38.049Z,19.03
2022-09-18T10:07:18.030Z,19.09
2022-09-18T10:10:00.081Z,19.19
2022-09-18T10:15:33.867Z,19.37
2022-09-18T10:18:10.689Z,19.37
2022-09-18T10:20:43.999Z,19.36
2022-09-18T10:23:21.335Z,19.81
2022-09-18T10:26:03.167Z,19.53
2022-09-18T10:28:34.970Z,19.63
2022-09-18T10:31:13.143Z,19.69
2022-09-18T10:33:54.224Z,20.24
2022-09-18T10:36:38.054Z,20.02
2022-09-18T10:39:31.214Z,20.22
2022-09-18T10:42:06.401Z,20.40
2022-09-18T10:44:42.478Z,20.15
2022-09-18T10:47:25.868Z,20.78
2022-09-18T10:50:03.131Z,20.89
2022-09-18T10:52:34.666Z,21.31
2022-09-18T10:55:32.128Z,21.57
2022-09-18T10:58:04.490Z,21.84
2022-09-18T11:00:35.688Z,21.70
2022-09-18T11:03:21.134Z,21.55
2022-09-18T11:06:00.886Z,21.72
2022-09-18T11:08:37.577Z,22.16
2022-09-18T11:11:09.852Z,22.16
2022-09-18T11:13:58.458Z,22.67
2022-09-18T11:16:39.607Z,22.51
2022-09-18T11:19:13.355Z,23.16
2022-09-18T11:21:55.241Z,24.08
2022-09-18T11:24:34.725Z,23.88
2022-09-18T11:27:22.884Z,25.38
2022-09-18T11:30:16.844Z,26.73
2022-09-18T11:32:47.057Z,27.39
2022-09-18T11:35:46.133Z,28.45
2022-09-18T11:38:20.278Z,30.25
2022-09-18T11:40:54.112Z,31.32
2022-09-18T11:43:32.812Z,30.98
2022-09-18T11:46:04.144Z,31.05
2022-09-18T11:48:59.384Z,31.52
2022-09-18T11:51:37.991Z,30.43
2022-09-18T11:54:31.451Z,31.31
2022-09-18T11:57:05.600Z,31.73
2022-09-18T11:59:42.814Z,34.42
2022-09-18T12:02:30.909Z,33.93
2022-09-18T12:05:17.185Z,34.54
2022-09-18T12:07:50.826Z,34.36
2022-09-18T12:10:23.940Z,33.76
2022-09-18T12:13:11.060Z,34.86
2022-09-18T12:15:39.975Z,34.44
2022-09-18T12:18:13.917Z,34.77
2022-09-18T12:20:51.096Z,35.31
2022-09-18T12:23:27.571Z,34.90
2022-09-18T12:26:02.305Z,33.89
2022-09-18T12:28:45.471Z,34.26
2022-09-18T12:31:20.960Z,34.57
2022-09-18T12:33:53.952Z,34.00
2022-09-18T12:36:30.484Z,33.79
2022-09-18T12:39:04.560Z,32.63
2022-09-18T12:41:44.416Z,33.68
2022-09-18T12:44:21.692Z,34.07
2022-09-18T12:47:07.023Z,34.21
2022-09-18T12:49:37.284Z,34.25
2022-09-18T12:52:27.093Z,35.11
2022-09-18T12:55:13.799Z,35.19
2022-09-18T12:57:46.518Z,35.09
2022-09-18T13:00:16.588Z,34.43
2022-09-18T13:03:14.063Z,35.59
2022-09-18T13:05:44.254Z,35.35
2022-09-18T13:08:26.783Z,36.03
2022-09-18T13:11:07.991Z,35.17
2022-09-18T13:13:41.494Z,35.29
2022-09-18T13:16:22.413Z,33.91
2022-09-18T13:18:55.243Z,34.23
2022-09-18T13:21:33.209Z,34.52
2022-09-18T13:24:07.907Z,35.15
2022-09-18T13:26:39.833Z,35.90
2022-09-18T13:29:26.535Z,35.75
2022-09-18T13:31:53.940Z,32.82
2022-09-18T13:34:21.704Z,31.11
2022-09-18T13:36:53.090Z,29.14
2022-09-18T13:39:27.018Z,28.94
2022-09-18T13:41:56.080Z,26.89
2022-09-18T13:44:24.872Z,26.46
2022-09-18T13:46:53.587Z,25.90
2022-09-18T13:49:30.432Z,25.44
2022-09-18T13:52:23.685Z,25.19
2022-09-18T13:55:25.398Z,24.92
2022-09-18T13:58:12.882Z,24.66
2022-09-18T14:00:45.594Z,24.42
2022-09-18T14:03:16.253Z,24.36
2022-09-18T14:05:43.752Z,24.30
2022-09-18T14:08:21.559Z,24.34
2022-09-18T14:11:15.543Z,24.33
2022-09-18T14:13:51.828Z,24.07
2022-09-18T14:17:15.562Z,23.70
2022-09-18T14:19:44.657Z,23.71
2022-09-18T14:22:23.443Z,23.53
2022-09-18T14:24:56.369Z,23.56
2022-09-18T14:27:38.391Z,23.48
2022-09-18T14:30:13.906Z,23.31
2022-09-18T14:32:45.481Z,23.35
2022-09-18T14:35:20.748Z,23.38
2022-09-18T14:37:48.673Z,23.21
2022-09-18T14:40:21.121Z,23.36
2022-09-18T14:42:51.483Z,23.06
2022-09-18T14:45:22.675Z,22.96
2022-09-18T14:47:56.163Z,23.00
2022-09-18T14:50:35.137Z,23.09
2022-09-18T14:53:04.679Z,23.12
2022-09-18T14:55:38.512Z,23.16
2022-09-18T14:58:10.234Z,23.10
2022-09-18T15:00:46.007Z,23.17
2022-09-18T15:03:26.489Z,23.07
2022-09-18T15:06:04.209Z,23.09
2022-09-18T15:11:41.662Z,23.03
2022-09-18T15:14:47.506Z,22.98
2022-09-18T15:17:26.445Z,22.90
2022-09-18T15:20:14.103Z,22.95
2022-09-18T15:22:49.033Z,22.89
2022-09-18T15:25:37.538Z,22.85
2022-09-18T15:28:14.208Z,22.86
2022-09-18T15:31:04.784Z,22.80
2022-09-18T15:33:40.525Z,22.83
2022-09-18T15:36:28.901Z,22.90
2022-09-18T15:39:01.966Z,23.02
2022-09-18T15:41:40.384Z,23.04
2022-09-18T15:44:26.958Z,23.04
2022-09-18T15:47:08.216Z,22.96
2022-09-18T15:49:41.431Z,23.01
2022-09-18T15:52:31.203Z,22.98
2022-09-18T15:55:27.301Z,23.05
2022-09-18T15:58:02.289Z,23.06
2022-09-18T16:00:58.792Z,23.10
2022-09-18T16:03:30.130Z,23.01
2022-09-18T16:06:06.501Z,22.98
2022-09-18T16:08:42.683Z,22.92
2022-09-18T16:11:40.922Z,22.88
2022-09-18T16:14:41.045Z,22.74
2022-09-18T16:17:36.754Z,22.83
2022-09-18T16:20:26.329Z,22.71
2022-09-18T16:22:58.992Z,22.65
2022-09-18T16:25:31.951Z,22.62
2022-09-18T16:28:12.187Z,22.56
2022-09-18T16:30:45.367Z,22.53
2022-09-18T16:33:26.249Z,22.49
2022-09-18T16:36:00.579Z,22.54
2022-09-18T16:38:34.145Z,22.42
2022-09-18T16:41:09.824Z,22.36
2022-09-18T16:43:44.010Z,22.29
2022-09-18T16:46:19.515Z,22.33
2022-09-18T16:48:49.286Z,22.22
2022-09-18T16:51:21.950Z,22.25
2022-09-18T16:53:49.722Z,22.23
2022-09-18T16:56:24.119Z,22.22
2022-09-18T16:58:54.222Z,22.16
2022-09-18T17:01:36.131Z,22.15
2022-09-18T17:04:19.803Z,22.11
2022-09-18T17:06:56.042Z,22.07
2022-09-18T17:09:28.461Z,21.95
2022-09-18T17:12:02.101Z,21.87
2022-09-18T17:14:34.964Z,21.93
2022-09-18T17:17:06.662Z,21.93
2022-09-18T17:19:39.433Z,21.76
2022-09-18T17:22:12.708Z,21.84
2022-09-18T17:24:47.949Z,21.73
2022-09-18T17:27:26.299Z,21.72
2022-09-18T17:29:53.877Z,21.54
2022-09-18T17:32:27.100Z,21.37
2022-09-18T17:35:00.140Z,21.41
2022-09-18T17:37:29.014Z,21.34
2022-09-18T17:40:02.724Z,21.31
2022-09-18T17:42:55.647Z,21.15
2022-09-18T17:45:29.259Z,21.18
2022-09-18T17:48:00.211Z,21.08
2022-09-18T17:50:36.888Z,21.17
2022-09-18T17:53:08.943Z,21.07
2022-09-18T17:55:44.733Z,21.10
2022-09-18T17:58:17.318Z,21.00
2022-09-18T18:00:53.327Z,20.81
2022-09-18T18:03:27.199Z,20.93
2022-09-18T18:06:03.624Z,20.95
2022-09-18T18:09:09.191Z,21.05
2022-09-18T18:11:46.690Z,21.09
2022-09-18T18:14:14.806Z,21.15
2022-09-18T18:16:43.338Z,21.09
2022-09-18T18:19:12.317Z,21.05
2022-09-18T18:21:40.896Z,21.09
2022-09-18T18:24:13.267Z,21.12
2022-09-18T18:26:43.954Z,21.10
2022-09-18T18:29:12.369Z,21.10
2022-09-18T18:31:40.673Z,21.12
2022-09-18T18:34:10.749Z,21.06
2022-09-18T18:36:39.202Z,21.02
2022-09-18T18:39:09.841Z,21.05
2022-09-18T18:41:40.149Z,21.04
2022-09-18T18:44:07.449Z,21.02
2022-09-18T18:46:36.269Z,20.99
2022-09-18T18:49:11.551Z,20.94
2022-09-18T18:51:43.716Z,20.94
2022-09-18T18:54:17.664Z,20.85
2022-09-18T18:56:48.585Z,20.92
2022-09-18T18:59:18.614Z,21.01
2022-09-18T19:01:47.335Z,20.95
2022-09-18T19:04:16.090Z,21.04
2022-09-18T19:06:56.517Z,21.11
2022-09-18T19:09:26.038Z,21.01
2022-09-18T19:11:53.929Z,20.74
2022-09-18T19:14:22.543Z,20.30
2022-09-18T19:16:49.980Z,19.69
2022-09-18T19:19:19.999Z,20.06
2022-09-18T19:21:48.184Z,20.29
2022-09-18T19:24:16.114Z,20.38
2022-09-18T19:26:45.340Z,20.57
2022-09-18T19:29:13.852Z,20.66
2022-09-18T19:31:43.185Z,20.64
2022-09-18T19:34:12.152Z,20.67
2022-09-18T19:36:39.528Z,20.72
2022-09-18T19:39:07.386Z,20.71
2022-09-18T19:41:35.696Z,20.57
2022-09-18T19:44:06.822Z,20.58
2022-09-18T19:46:34.137Z,20.56
2022-09-18T19:49:01.431Z,20.70
2022-09-18T19:51:29.476Z,20.60
2022-09-18T19:53:59.743Z,20.68
2022-09-18T19:56:42.137Z,20.52
2022-09-18T19:59:10.417Z,20.59
2022-09-18T20:01:37.700Z,20.69
2022-09-18T20:04:05.034Z,20.74
2022-09-18T20:06:35.298Z,20.73
2022-09-18T20:09:02.603Z,20.69
2022-09-18T20:11:29.784Z,20.67
2022-09-18T20:13:57.043Z,20.66
2022-09-18T20:16:24.317Z,20.71
2022-09-18T20:18:51.736Z,20.71
2022-09-18T20:21:19.132Z,20.72
2022-09-18T20:23:46.997Z,20.65
2022-09-18T20:26:16.526Z,20.75
2022-09-18T20:28:46.180Z,20.70
2022-09-18T20:31:14.011Z,20.64
2022-09-18T20:33:46.749Z,20.55
2022-09-18T20:36:13.962Z,20.62
2022-09-18T20:38:41.827Z,20.57
2022-09-18T20:41:13.945Z,20.63
2022-09-18T20:43:41.883Z,20.60
2022-09-18T20:46:27.636Z,20.61
2022-09-18T20:49:00.093Z,20.55
2022-09-18T20:51:32.793Z,20.54
2022-09-18T20:54:03.213Z,20.30
2022-09-18T20:56:36.133Z,20.44
2022-09-18T20:59:06.625Z,20.51
2022-09-18T21:01:41.498Z,20.51
2022-09-18T21:04:09.596Z,20.49
2022-09-18T21:06:36.924Z,20.48
2022-09-18T21:09:07.632Z,20.37
2022-09-18T21:11:46.904Z,20.45
2022-09-18T21:14:17.870Z,19.92
2022-09-18T21:16:45.054Z,19.83
2022-09-18T21:19:12.761Z,19.72
2022-09-18T21:21:40.167Z,19.77
2022-09-18T21:24:11.420Z,19.93
2022-09-18T21:29:26.108Z,19.95
2022-09-18T21:31:54.891Z,19.97
2022-09-18T21:34:27.230Z,20.01
2022-09-18T21:37:00.981Z,19.90
2022-09-18T21:39:28.653Z,19.85
2022-09-18T21:41:56.348Z,20.01
2022-09-18T21:44:31.798Z,20.09
2022-09-18T21:47:06.455Z,19.85
2022-09-18T21:49:33.930Z,19.98
2022-09-18T21:52:02.304Z,20.07
2022-09-18T21:54:30.340Z,19.98
2022-09-18T21:56:59.197Z,19.72
2022-09-18T21:59:27.594Z,19.85
2022-09-18T22:01:55.178Z,19.85
2022-09-18T22:04:24.164Z,19.95
2022-09-18T22:06:52.176Z,19.77
2022-09-18T22:09:21.485Z,19.13
2022-09-18T22:11:49.007Z,19.41
2022-09-18T22:14:19.475Z,19.77
2022-09-18T22:16:49.432Z,19.92
2022-09-18T22:19:17.037Z,19.98
2022-09-18T22:21:48.133Z,20.04
2022-09-18T22:24:19.780Z,19.54
2022-09-18T22:26:54.816Z,19.15
2022-09-18T22:29:24.000Z,19.13
2022-09-18T22:31:51.387Z,19.40
2022-09-18T22:34:19.948Z,19.58
2022-09-18T22:36:47.910Z,19.81
2022-09-18T22:39:17.992Z,19.72
2022-09-18T22:41:47.639Z,19.73
2022-09-18T22:44:18.358Z,19.70
2022-09-18T22:46:52.547Z,19.25
2022-09-18T22:49:20.601Z,19.08
2022-09-18T22:51:59.601Z,19.34
2022-09-18T22:54:27.792Z,18.97
2022-09-18T22:56:55.556Z,19.30
2022-09-18T22:59:23.637Z,19.24
2022-09-18T23:01:57.499Z,18.82
2022-09-18T23:04:29.161Z,19.12
2022-09-18T23:06:56.832Z,18.16
2022-09-18T23:09:24.141Z,18.51
2022-09-18T23:11:54.461Z,18.78
2022-09-18T23:14:29.367Z,18.38
2022-09-18T23:16:59.881Z,18.66
2022-09-18T23:19:28.467Z,18.87
2022-09-18T23:21:59.109Z,19.23
2022-09-18T23:24:31.681Z,18.38
2022-09-18T23:27:00.262Z,18.70
2022-09-18T23:29:27.924Z,19.02
2022-09-18T23:31:57.794Z,19.18
2022-09-18T23:34:27.961Z,18.68
2022-09-18T23:36:58.564Z,18.60
2022-09-18T23:39:34.852Z,19.08
2022-09-18T23:42:05.883Z,18.86
2022-09-18T23:44:35.967Z,19.10
2022-09-18T23:47:05.723Z,19.30
2022-09-18T23:49:33.490Z,19.27
2022-09-18T23:52:01.554Z,19.38
2022-09-18T23:54:34.158Z,19.34
2022-09-18T23:57:03.771Z,18.94
2022-09-18T23:59:31.119Z,19.00
